Holdridge, Nebraska
Current Conditions -  °F | °C
As of 7:15 PM on Saturday 22 Nov 2014 (Local Time) from KHDE Reporting Station
Clear Clear  
Wind Chill: 42°   Ceiling: Unl
Heat Index: 46°   Visibility: 10mi
Dew Point: 32°   Wind: 9mph
Humidity: 57%   Direction: 170°S
Pressure: 29.54"   Gusts: NA
Location:  40.4958°N, 99.3198°W
Report Text: KHDE 230115Z AUTO 17008KT 10SM CLR 08/00 A2954 RMK AO2 T00800000
Loading
Personal Weather Stations






























Interactive Weather Map New forecast layout! Learn more

10-Day Weather Forecast

Advertisements
Track Severe Weather on mobile